Time,TemperatureF,DewpointF,PressureIn,WindDirection,WindDirectionDegrees,WindSpeedMPH,WindSpeedGustMPH,Humidity,HourlyPrecipIn,Conditions,Clouds,dailyrainin,SoftwareType,DateUTC
2013-02-07 00:01:00,34.3,30.0,29.92,North,352,0.0,3.0,84,0.00,,,0.23,Wunderground v.1.15,2013-02-07 07:01:00,
2013-02-07 00:11:00,34.1,29.5,29.92,North,352,0.0,3.0,83,0.00,,,0.23,Wunderground v.1.15,2013-02-07 07:11:00,
2013-02-07 00:21:00,33.8,29.2,29.92,North,352,0.0,3.0,83,0.00,,,0.00,Wunderground v.1.15,2013-02-07 07:21:00,
2013-02-07 07:56:00,23.9,19.5,30.18,NW,322,0.0,3.0,83,0.00,,,0.00,Wunderground v.1.15,2013-02-07 14:56:00,
2013-02-07 08:11:00,24.5,20.4,30.19,NW,322,0.0,3.0,84,0.00,,,0.00,Wunderground v.1.15,2013-02-07 15:11:00,
2013-02-07 08:16:00,25.3,21.4,30.19,NW,322,0.0,3.0,85,0.00,,,0.00,Wunderground v.1.15,2013-02-07 15:16:00,
2013-02-07 08:26:00,27.2,23.3,30.19,NW,322,0.0,3.0,85,0.00,,,0.00,Wunderground v.1.15,2013-02-07 15:26:00,
2013-02-07 08:31:00,28.1,24.5,30.19,NW,322,0.0,3.0,86,0.00,,,0.00,Wunderground v.1.15,2013-02-07 15:31:00,
2013-02-07 08:41:00,29.4,25.4,30.18,NW,320,0.0,3.0,85,0.00,,,0.00,Wunderground v.1.15,2013-02-07 15:41:00,
2013-02-07 08:51:00,30.0,26.0,30.17,WSW,248,0.0,3.0,85,0.00,,,0.00,Wunderground v.1.15,2013-02-07 15:51:00,
2013-02-07 09:01:00,31.0,27.0,30.17,WSW,248,0.0,3.0,85,0.00,,,0.00,Wunderground v.1.15,2013-02-07 16:01:00,
2013-02-07 09:11:00,31.3,27.0,30.16,WSW,248,0.0,3.0,84,0.00,,,0.00,Wunderground v.1.15,2013-02-07 16:11:00,
2013-02-07 09:16:00,31.6,27.3,30.16,WSW,248,0.0,3.0,84,0.00,,,0.00,Wunderground v.1.15,2013-02-07 16:16:00,
2013-02-07 09:26:00,32.7,28.1,30.16,WSW,248,0.0,3.0,83,0.00,,,0.00,Wunderground v.1.15,2013-02-07 16:26:00,
2013-02-07 09:36:00,33.2,28.6,30.14,WSW,248,0.0,3.0,83,0.00,,,0.00,Wunderground v.1.15,2013-02-07 16:36:00,
2013-02-07 09:46:00,33.7,29.1,30.14,South,191,0.0,3.0,83,0.00,,,0.00,Wunderground v.1.15,2013-02-07 16:46:00,
2013-02-07 09:56:00,34.3,27.8,30.14,SSW,206,0.0,3.0,77,0.00,,,0.00,Wunderground v.1.15,2013-02-07 16:56:00,
2013-02-07 10:11:00,34.7,26.9,30.14,SSW,206,0.0,3.0,73,0.00,,,0.00,Wunderground v.1.15,2013-02-07 17:11:00,
2013-02-07 10:21:00,35.5,27.4,30.13,SSW,206,0.0,3.0,72,0.00,,,0.00,Wunderground v.1.15,2013-02-07 17:21:00,
2013-02-07 10:31:00,36.2,26.6,30.13,SSW,206,0.0,3.0,68,0.00,,,0.00,Wunderground v.1.15,2013-02-07 17:31:00,
2013-02-07 10:36:00,36.6,26.3,30.13,SSW,206,0.0,3.0,66,0.00,,,0.00,Wunderground v.1.15,2013-02-07 17:36:00,
2013-02-07 10:46:00,37.5,26.0,30.13,SSW,206,0.0,3.0,63,0.00,,,0.00,Wunderground v.1.15,2013-02-07 17:46:00,
2013-02-07 10:56:00,38.6,26.7,30.11,SSW,200,0.0,3.0,62,0.00,,,0.00,Wunderground v.1.15,2013-02-07 17:56:00,
2013-02-07 11:11:00,39.6,26.8,30.12,SSW,192,0.0,3.0,60,0.00,,,0.00,Wunderground v.1.15,2013-02-07 18:11:00,
2013-02-07 11:21:00,39.9,25.9,30.10,SSW,192,0.0,3.0,57,0.00,,,0.00,Wunderground v.1.15,2013-02-07 18:21:00,
2013-02-07 11:26:00,40.3,26.7,30.10,South,179,0.0,3.0,58,0.00,,,0.00,Wunderground v.1.15,2013-02-07 18:26:00,
2013-02-07 11:36:00,41.5,25.2,30.10,SSE,151,0.0,3.0,52,0.00,,,0.00,Wunderground v.1.15,2013-02-07 18:36:00,
2013-02-07 11:46:00,41.5,23.7,30.10,SSE,154,0.0,3.0,49,0.00,,,0.00,Wunderground v.1.15,2013-02-07 18:46:00,
2013-02-07 11:56:00,42.1,24.8,30.08,South,178,0.0,3.0,50,0.00,,,0.00,Wunderground v.1.15,2013-02-07 18:56:00,
2013-02-07 12:11:00,43.5,24.1,30.07,ENE,76,0.0,3.0,46,0.00,,,0.00,Wunderground v.1.15,2013-02-07 19:11:00,
2013-02-07 12:21:00,44.5,20.4,30.05,SE,126,0.0,3.0,38,0.00,,,0.00,Wunderground v.1.15,2013-02-07 19:21:00,
2013-02-07 12:31:00,45.1,17.0,30.05,SSE,158,0.0,3.0,32,0.00,,,0.00,Wunderground v.1.15,2013-02-07 19:31:00,
2013-02-07 12:41:00,45.7,16.0,30.04,SE,134,0.0,3.0,30,0.00,,,0.00,Wunderground v.1.15,2013-02-07 19:41:00,
2013-02-07 12:46:00,45.8,16.1,30.04,SE,140,0.0,3.0,30,0.00,,,0.00,Wunderground v.1.15,2013-02-07 19:46:00,
2013-02-07 12:56:00,46.1,13.9,30.04,SSE,148,0.0,3.0,27,0.00,,,0.00,Wunderground v.1.15,2013-02-07 19:56:00,
2013-02-07 13:11:00,47.1,13.9,30.02,NE,34,0.0,3.0,26,0.00,,,0.00,Wunderground v.1.15,2013-02-07 20:11:00,
2013-02-07 13:16:00,47.4,14.2,30.01,ENE,65,0.0,3.0,26,0.00,,,0.00,Wunderground v.1.15,2013-02-07 20:16:00,
2013-02-07 13:26:00,47.9,14.6,30.01,NNE,30,0.0,3.0,26,0.00,,,0.00,Wunderground v.1.15,2013-02-07 20:26:00,
2013-02-07 13:31:00,47.7,14.4,30.01,ENE,69,0.0,3.0,26,0.00,,,0.00,Wunderground v.1.15,2013-02-07 20:31:00,
2013-02-07 13:41:00,47.3,14.1,30.00,NNW,328,0.0,3.0,26,0.00,,,0.00,Wunderground v.1.15,2013-02-07 20:41:00,
2013-02-07 13:51:00,47.3,15.8,30.00,SE,134,0.0,3.0,28,0.00,,,0.00,Wunderground v.1.15,2013-02-07 20:51:00,
2013-02-07 14:01:00,47.6,16.9,30.00,NE,45,0.0,3.0,29,0.00,,,0.00,Wunderground v.1.15,2013-02-07 21:01:00,
2013-02-07 14:11:00,47.6,18.4,29.98,ENE,75,0.0,3.0,31,0.00,,,0.00,Wunderground v.1.15,2013-02-07 21:11:00,
2013-02-07 14:21:00,47.4,20.4,29.98,East,96,0.0,3.0,34,0.00,,,0.00,Wunderground v.1.15,2013-02-07 21:21:00,
2013-02-07 14:31:00,47.4,19.0,29.98,NE,44,0.0,3.0,32,0.00,,,0.00,Wunderground v.1.15,2013-02-07 21:31:00,
2013-02-07 14:36:00,47.3,18.9,29.98,NE,54,0.0,3.0,32,0.00,,,0.00,Wunderground v.1.15,2013-02-07 21:36:00,
2013-02-07 14:46:00,47.4,20.4,29.98,East,99,0.0,3.0,34,0.00,,,0.00,Wunderground v.1.15,2013-02-07 21:46:00,
2013-02-07 14:56:00,47.4,19.0,29.98,NE,44,0.0,3.0,32,0.00,,,0.00,Wunderground v.1.15,2013-02-07 21:56:00,
2013-02-07 15:01:00,47.4,19.7,29.98,SE,133,0.0,3.0,33,0.00,,,0.00,Wunderground v.1.15,2013-02-07 22:01:00,
2013-02-07 15:11:00,47.7,19.2,29.98,ENE,68,0.0,3.0,32,0.00,,,0.00,Wunderground v.1.15,2013-02-07 22:11:00,
2013-02-07 15:21:00,47.7,20.0,29.98,NE,48,0.0,3.0,33,0.00,,,0.00,Wunderground v.1.15,2013-02-07 22:21:00,
2013-02-07 15:26:00,47.7,20.7,29.98,NE,40,0.0,3.0,34,0.00,,,0.00,Wunderground v.1.15,2013-02-07 22:26:00,
2013-02-07 15:36:00,47.9,21.5,29.97,East,96,0.0,3.0,35,0.00,,,0.00,Wunderground v.1.15,2013-02-07 22:36:00,
2013-02-07 15:46:00,47.9,21.5,29.97,ESE,109,0.0,3.0,35,0.00,,,0.00,Wunderground v.1.15,2013-02-07 22:46:00,
2013-02-07 15:51:00,47.9,20.8,29.97,NNE,32,0.0,3.0,34,0.00,,,0.00,Wunderground v.1.15,2013-02-07 22:51:00,
2013-02-07 16:01:00,47.6,16.9,29.97,NE,55,0.0,3.0,29,0.00,,,0.00,Wunderground v.1.15,2013-02-07 23:01:00,
2013-02-07 16:11:00,47.6,15.2,29.97,North,0,0.0,3.0,27,0.00,,,0.00,Wunderground v.1.15,2013-02-07 23:11:00,
2013-02-07 16:21:00,47.6,12.5,29.97,NNE,28,0.0,3.0,24,0.00,,,0.00,Wunderground v.1.15,2013-02-07 23:21:00,
2013-02-07 16:31:00,47.4,12.4,29.97,NNE,21,0.0,3.0,24,0.00,,,0.00,Wunderground v.1.15,2013-02-07 23:31:00,
2013-02-07 16:41:00,47.6,13.5,30.00,NNE,21,0.0,3.0,25,0.00,,,0.00,Wunderground v.1.15,2013-02-07 23:41:00,
2013-02-07 16:46:00,47.7,14.4,29.98,ESE,123,0.0,3.0,26,0.00,,,0.00,Wunderground v.1.15,2013-02-07 23:46:00,
2013-02-07 16:56:00,47.7,16.9,29.98,ESE,102,0.0,3.0,29,0.00,,,0.00,Wunderground v.1.15,2013-02-07 23:56:00,
2013-02-07 17:11:00,46.8,15.4,29.98,East,96,0.0,3.0,28,0.00,,,0.00,Wunderground v.1.15,2013-02-08 00:11:00,
2013-02-07 17:21:00,45.8,14.5,30.00,East,96,0.0,3.0,28,0.00,,,0.00,Wunderground v.1.15,2013-02-08 00:21:00,
2013-02-07 17:31:00,44.9,14.5,30.00,East,96,0.0,3.0,29,0.00,,,0.00,Wunderground v.1.15,2013-02-08 00:31:00,
2013-02-07 17:41:00,43.8,15.1,30.02,East,96,0.0,3.0,31,0.00,,,0.00,Wunderground v.1.15,2013-02-08 00:41:00,
2013-02-07 17:51:00,42.6,16.8,30.04,East,96,0.0,3.0,35,0.00,,,0.00,Wunderground v.1.15,2013-02-08 00:51:00,
2013-02-07 18:01:00,41.3,19.9,30.05,East,96,0.0,3.0,42,0.00,,,0.00,Wunderground v.1.15,2013-02-08 01:01:00,
2013-02-07 18:11:00,40.5,22.8,30.05,East,90,0.0,3.0,49,0.00,,,0.00,Wunderground v.1.15,2013-02-08 01:11:00,
2013-02-07 18:21:00,40.2,23.5,30.05,East,90,0.0,3.0,51,0.00,,,0.00,Wunderground v.1.15,2013-02-08 01:21:00,
2013-02-07 18:31:00,39.8,23.6,30.06,East,90,0.0,3.0,52,0.00,,,0.00,Wunderground v.1.15,2013-02-08 01:31:00,
2013-02-07 18:41:00,39.5,23.8,30.06,East,90,0.0,3.0,53,0.00,,,0.00,Wunderground v.1.15,2013-02-08 01:41:00,
2013-02-07 18:51:00,39.1,23.8,30.06,East,90,0.0,3.0,54,0.00,,,0.00,Wunderground v.1.15,2013-02-08 01:51:00,
2013-02-07 19:01:00,38.8,23.6,30.06,East,90,0.0,3.0,54,0.00,,,0.00,Wunderground v.1.15,2013-02-08 02:01:00,
2013-02-07 19:11:00,38.5,23.7,30.06,East,90,0.0,3.0,55,0.00,,,0.00,Wunderground v.1.15,2013-02-08 02:11:00,
2013-02-07 19:21:00,38.0,23.3,30.07,East,90,0.0,3.0,55,0.00,,,0.00,Wunderground v.1.15,2013-02-08 02:21:00,
2013-02-07 19:26:00,37.8,23.1,30.07,East,90,0.0,3.0,55,0.00,,,0.00,Wunderground v.1.15,2013-02-08 02:26:00,
2013-02-07 19:36:00,37.2,22.9,30.06,East,90,0.0,3.0,56,0.00,,,0.00,Wunderground v.1.15,2013-02-08 02:36:00,
2013-02-07 19:46:00,36.6,22.4,30.06,East,90,0.0,3.0,56,0.00,,,0.00,Wunderground v.1.15,2013-02-08 02:46:00,
2013-02-07 19:56:00,35.6,21.4,30.06,East,90,0.0,3.0,56,0.00,,,0.00,Wunderground v.1.15,2013-02-08 02:56:00,
2013-02-07 20:06:00,34.6,20.5,30.07,East,90,0.0,3.0,56,0.00,,,0.00,Wunderground v.1.15,2013-02-08 03:06:00,
2013-02-07 20:16:00,33.7,20.1,30.07,East,90,0.0,3.0,57,0.00,,,0.00,Wunderground v.1.15,2013-02-08 03:16:00,
2013-02-07 20:26:00,32.7,19.1,30.08,East,90,0.0,3.0,57,0.00,,,0.00,Wunderground v.1.15,2013-02-08 03:26:00,
2013-02-07 20:36:00,31.9,19.6,30.04,East,90,0.0,3.0,60,0.00,,,0.00,Wunderground v.1.15,2013-02-08 03:36:00,
2013-02-07 20:46:00,31.6,19.3,30.04,East,90,0.0,3.0,60,0.00,,,0.00,Wunderground v.1.15,2013-02-08 03:46:00,
2013-02-07 20:56:00,31.3,19.4,30.04,East,90,0.0,3.0,61,0.00,,,0.00,Wunderground v.1.15,2013-02-08 03:56:00,
2013-02-07 21:06:00,31.0,19.5,30.05,East,90,0.0,3.0,62,0.00,,,0.00,Wunderground v.1.15,2013-02-08 04:06:00,
2013-02-07 21:16:00,30.7,19.2,30.05,East,90,0.0,3.0,62,0.00,,,0.00,Wunderground v.1.15,2013-02-08 04:16:00,
2013-02-07 21:26:00,30.3,18.8,30.05,East,90,0.0,3.0,62,0.00,,,0.00,Wunderground v.1.15,2013-02-08 04:26:00,
2013-02-07 21:31:00,30.1,19.0,30.04,East,90,0.0,3.0,63,0.00,,,0.00,Wunderground v.1.15,2013-02-08 04:31:00,
2013-02-07 21:41:00,30.3,19.2,30.04,East,90,0.0,3.0,63,0.00,,,0.00,Wunderground v.1.15,2013-02-08 04:41:00,
2013-02-07 21:51:00,30.4,19.3,30.03,East,90,0.0,3.0,63,0.00,,,0.00,Wunderground v.1.15,2013-02-08 04:51:00,
2013-02-07 22:01:00,30.4,18.9,30.03,East,90,0.0,3.0,62,0.00,,,0.00,Wunderground v.1.15,2013-02-08 05:01:00,
2013-02-07 22:06:00,30.3,18.8,30.03,East,90,0.0,3.0,62,0.00,,,0.00,Wunderground v.1.15,2013-02-08 05:06:00,
2013-02-07 22:16:00,30.0,18.5,30.03,East,90,0.0,3.0,62,0.00,,,0.00,Wunderground v.1.15,2013-02-08 05:16:00,
2013-02-07 22:26:00,29.4,18.0,30.03,East,90,0.0,3.0,62,0.00,,,0.00,Wunderground v.1.15,2013-02-08 05:26:00,
2013-02-07 22:31:00,29.1,17.7,30.03,East,90,0.0,3.0,62,0.00,,,0.00,Wunderground v.1.15,2013-02-08 05:31:00,
2013-02-07 22:36:00,29.1,18.1,29.99,East,90,0.0,3.0,63,0.00,,,0.00,Wunderground v.1.15,2013-02-08 05:36:00,
2013-02-07 22:46:00,29.4,18.3,29.99,East,90,0.0,3.0,63,0.00,,,0.00,Wunderground v.1.15,2013-02-08 05:46:00,
2013-02-07 22:51:00,29.7,18.6,29.99,East,90,0.0,3.0,63,0.00,,,0.00,Wunderground v.1.15,2013-02-08 05:51:00,
2013-02-07 22:56:00,30.3,18.8,29.99,East,90,0.0,3.0,62,0.00,,,0.00,Wunderground v.1.15,2013-02-08 05:56:00,
2013-02-07 23:07:00,31.2,19.3,29.98,East,90,0.0,3.0,61,0.00,,,0.00,Wunderground v.1.15,2013-02-08 06:07:00,
2013-02-07 23:16:00,31.8,19.1,29.96,East,90,0.0,3.0,59,0.00,,,0.00,Wunderground v.1.15,2013-02-08 06:16:00,
2013-02-07 23:26:00,32.1,19.0,29.96,East,90,0.0,3.0,58,0.00,,,0.00,Wunderground v.1.15,2013-02-08 06:26:00,
2013-02-07 23:36:00,32.2,18.2,29.94,East,90,0.0,3.0,56,0.00,,,0.00,Wunderground v.1.15,2013-02-08 06:36:00,
2013-02-07 23:41:00,32.4,18.4,29.94,East,99,0.0,3.0,56,0.00,,,0.00,Wunderground v.1.15,2013-02-08 06:41:00,
2013-02-07 23:51:00,32.9,18.1,29.94,SSE,148,0.0,3.0,54,0.00,,,0.00,Wunderground v.1.15,2013-02-08 06:51:00,
2013-02-07 23:56:00,33.4,17.6,29.94,North,359,0.0,3.0,52,0.00,,,0.00,Wunderground v.1.15,2013-02-08 06:56:00,